createdAt,value
2023-02-27T00:01:16.645Z,97615.22
2023-02-27T00:04:03.729Z,97610.94
2023-02-27T00:06:50.551Z,97604.03
2023-02-27T00:09:38.158Z,97611.03
2023-02-27T00:12:27.791Z,97612.00
2023-02-27T00:15:38.246Z,97607.72
2023-02-27T00:18:25.094Z,97610.34
2023-02-27T00:21:11.991Z,97608.88
2023-02-27T00:23:58.842Z,97606.97
2023-02-27T00:26:45.596Z,97609.50
2023-02-27T00:29:32.411Z,97618.41
2023-02-27T00:32:19.273Z,97615.91
2023-02-27T00:35:08.048Z,97619.34
2023-02-27T00:37:54.933Z,97622.06
2023-02-27T00:40:41.691Z,97618.72
2023-02-27T00:43:28.493Z,97621.22
2023-02-27T00:46:15.306Z,97621.34
2023-02-27T00:49:02.128Z,97610.97
2023-02-27T00:51:49.089Z,97614.53
2023-02-27T00:54:35.942Z,97612.88
2023-02-27T00:57:22.993Z,97608.47
2023-02-27T01:00:10.862Z,97610.34
2023-02-27T01:02:57.712Z,97615.59
2023-02-27T01:05:44.534Z,97612.97
2023-02-27T01:08:31.552Z,97609.66
2023-02-27T01:11:18.456Z,97612.25
2023-02-27T01:14:08.208Z,97610.56
2023-02-27T01:16:55.075Z,97615.91
2023-02-27T01:19:41.865Z,97627.13
2023-02-27T01:22:28.662Z,97615.09
2023-02-27T01:25:15.492Z,97622.09
2023-02-27T01:28:02.302Z,97625.53
2023-02-27T01:30:49.126Z,97623.03
2023-02-27T01:33:36.014Z,97623.97
2023-02-27T01:36:22.801Z,97627.53
2023-02-27T01:39:09.682Z,97620.66
2023-02-27T01:41:56.466Z,97618.88
2023-02-27T01:45:08.315Z,97616.34
2023-02-27T01:48:01.274Z,97617.28
2023-02-27T01:51:12.503Z,97628.69
2023-02-27T01:54:00.425Z,97619.16
2023-02-27T01:56:47.270Z,97622.72
2023-02-27T01:59:35.228Z,97626.28
2023-02-27T02:02:26.694Z,97623.78
2023-02-27T02:05:13.866Z,97630.69
2023-02-27T02:08:00.825Z,97631.63
2023-02-27T02:10:48.801Z,97634.34
2023-02-27T02:13:37.129Z,97633.50
2023-02-27T02:17:01.154Z,97641.38
2023-02-27T02:20:29.238Z,97644.94
2023-02-27T02:23:43.542Z,97648.38
2023-02-27T02:26:45.611Z,97652.03
2023-02-27T02:29:32.297Z,97647.94
2023-02-27T02:32:34.332Z,97651.53
2023-02-27T02:35:49.445Z,97651.72
2023-02-27T02:39:14.117Z,97658.72
2023-02-27T02:42:09.078Z,97656.22
2023-02-27T02:45:18.085Z,97665.00
2023-02-27T02:48:20.044Z,97657.28
2023-02-27T02:52:11.657Z,97662.59
2023-02-27T02:55:15.553Z,97673.16
2023-02-27T02:58:09.085Z,97667.19
2023-02-27T03:01:00.576Z,97676.94
2023-02-27T03:03:56.489Z,97678.69
2023-02-27T03:06:47.809Z,97684.78
2023-02-27T03:09:38.916Z,97679.63
2023-02-27T03:12:26.431Z,97676.31
2023-02-27T03:15:31.490Z,97679.75
2023-02-27T03:18:21.625Z,97684.03
2023-02-27T03:21:51.766Z,97676.31
2023-02-27T03:24:44.656Z,97672.94
2023-02-27T03:27:36.121Z,97677.22
2023-02-27T03:30:36.352Z,97682.56
2023-02-27T03:33:24.944Z,97673.91
2023-02-27T03:36:28.735Z,97679.94
2023-02-27T03:39:15.493Z,97673.16
2023-02-27T03:42:12.441Z,97677.41
2023-02-27T03:45:06.590Z,97683.59
2023-02-27T03:47:53.458Z,97685.38
2023-02-27T03:50:40.355Z,97688.94
2023-02-27T03:53:32.015Z,97688.94
2023-02-27T03:56:25.811Z,97687.38
2023-02-27T03:59:12.674Z,97683.09
2023-02-27T04:02:00.753Z,97682.13
2023-02-27T04:04:47.722Z,97693.63
2023-02-27T04:07:47.659Z,97684.94
2023-02-27T04:10:59.062Z,97687.56
2023-02-27T04:14:05.384Z,97687.75
2023-02-27T04:17:06.250Z,97696.47
2023-02-27T04:20:15.072Z,97697.38
2023-02-27T04:23:06.646Z,97692.28
2023-02-27T04:26:05.954Z,97688.00
2023-02-27T04:29:04.914Z,97699.28
2023-02-27T04:32:06.629Z,97701.13
2023-02-27T04:34:57.831Z,97703.03
2023-02-27T04:38:00.824Z,97703.88
2023-02-27T04:40:56.411Z,97699.69
2023-02-27T04:43:44.337Z,97692.78
2023-02-27T04:46:31.642Z,97698.84
2023-02-27T04:49:38.662Z,97701.53
2023-02-27T04:52:38.616Z,97704.16
2023-02-27T04:55:29.326Z,97710.31
2023-02-27T04:58:20.152Z,97711.16
2023-02-27T05:01:12.613Z,97717.22
2023-02-27T05:04:02.183Z,97709.50
2023-02-27T05:06:50.590Z,97716.50
2023-02-27T05:09:51.068Z,97720.78
2023-02-27T05:12:45.008Z,97716.50
2023-02-27T05:15:36.318Z,97724.34
2023-02-27T05:18:23.590Z,97725.16
2023-02-27T05:21:22.163Z,97715.66
2023-02-27T05:24:22.589Z,97720.88
2023-02-27T05:27:18.255Z,97721.72
2023-02-27T05:30:27.145Z,97727.03
2023-02-27T05:33:20.374Z,97720.13
2023-02-27T05:36:20.712Z,97719.50
2023-02-27T05:39:10.761Z,97715.09
2023-02-27T05:42:00.997Z,97714.66
2023-02-27T05:44:52.011Z,97724.84
2023-02-27T05:47:42.076Z,97727.53
2023-02-27T05:50:30.882Z,97724.09
2023-02-27T05:53:20.870Z,97733.69
2023-02-27T05:56:33.846Z,97735.28
2023-02-27T05:59:27.943Z,97733.69
2023-02-27T06:02:14.820Z,97739.03
2023-02-27T06:05:04.689Z,97738.28
2023-02-27T06:07:51.806Z,97736.63
2023-02-27T06:13:45.414Z,97735.22
2023-02-27T06:16:32.394Z,97730.97
2023-02-27T06:19:22.390Z,97747.16
2023-02-27T06:22:10.368Z,97759.28
2023-02-27T06:24:57.122Z,97750.72
2023-02-27T06:27:44.135Z,97755.94
2023-02-27T06:30:31.125Z,97760.44
2023-02-27T06:33:17.910Z,97764.78
2023-02-27T06:36:04.914Z,97758.72
2023-02-27T06:38:52.127Z,97752.03
2023-02-27T06:41:39.102Z,97748.47
2023-02-27T06:44:25.968Z,97749.53
2023-02-27T06:47:13.008Z,97743.47
2023-02-27T06:50:00.295Z,97755.41
2023-02-27T06:52:47.106Z,97763.44
2023-02-27T06:55:33.963Z,97750.56
2023-02-27T06:58:21.175Z,97761.84
2023-02-27T07:01:08.106Z,97760.38
2023-02-27T07:03:54.985Z,97763.91
2023-02-27T07:07:34.178Z,97769.97
2023-02-27T07:09:49.023Z,97769.34
2023-02-27T07:12:35.830Z,97777.06
2023-02-27T07:15:22.802Z,97766.16
2023-02-27T07:18:09.592Z,97780.81
2023-02-27T07:20:56.408Z,97768.59
2023-02-27T07:23:43.531Z,97772.13
2023-02-27T07:26:30.563Z,97769.53
2023-02-27T07:29:20.570Z,97770.47
2023-02-27T07:32:07.399Z,97769.63
2023-02-27T07:34:54.243Z,97776.41
2023-02-27T07:37:41.069Z,97783.22
2023-02-27T07:40:28.019Z,97777.25
2023-02-27T07:43:14.887Z,97775.50
2023-02-27T07:46:04.116Z,97771.00
2023-02-27T07:48:50.896Z,97780.41
2023-02-27T07:51:37.856Z,97781.38
2023-02-27T07:54:24.697Z,97786.47
2023-02-27T07:57:11.521Z,97775.19
2023-02-27T07:59:58.972Z,97773.03
2023-02-27T08:02:45.815Z,97779.09
2023-02-27T08:05:32.714Z,97774.59
2023-02-27T08:08:19.732Z,97781.50
2023-02-27T08:11:06.565Z,97783.72
2023-02-27T08:14:00.571Z,97765.72
2023-02-27T08:16:48.017Z,97781.09
2023-02-27T08:19:35.157Z,97780.72
2023-02-27T08:22:21.960Z,97785.94
2023-02-27T08:25:11.177Z,97788.34
2023-02-27T08:27:58.008Z,97795.06
2023-02-27T08:30:45.061Z,97794.75
2023-02-27T08:33:31.832Z,97784.59
2023-02-27T08:36:18.662Z,97798.75
2023-02-27T08:39:06.465Z,97797.78
2023-02-27T08:41:53.259Z,97795.09
2023-02-27T08:44:40.084Z,97781.81
2023-02-27T08:47:26.886Z,97804.00
2023-02-27T08:50:16.431Z,97800.53
2023-02-27T08:53:03.215Z,97792.00
2023-02-27T08:55:51.482Z,97797.75
2023-02-27T08:58:38.347Z,97812.06
2023-02-27T09:01:28.476Z,97808.50
2023-02-27T09:04:16.243Z,97823.91
2023-02-27T09:07:03.134Z,97825.47
2023-02-27T09:09:50.182Z,97821.06
2023-02-27T09:12:37.569Z,97826.31
2023-02-27T09:15:24.721Z,97835.66
2023-02-27T09:18:11.782Z,97808.56
2023-02-27T09:20:58.646Z,97831.13
2023-02-27T09:23:45.488Z,97821.63
2023-02-27T09:26:44.945Z,97810.22
2023-02-27T09:29:32.861Z,97824.56
2023-02-27T09:32:19.696Z,97821.13
2023-02-27T09:35:10.250Z,97835.66
2023-02-27T09:37:57.946Z,97835.53
2023-02-27T09:40:45.208Z,97826.88
2023-02-27T09:43:46.460Z,97835.34
2023-02-27T09:46:33.380Z,97846.34
2023-02-27T09:49:22.036Z,97839.22
2023-02-27T09:52:13.415Z,97851.16
2023-02-27T09:55:00.523Z,97843.31
2023-02-27T09:57:52.552Z,97839.03
2023-02-27T10:00:49.514Z,97851.78
2023-02-27T10:03:54.336Z,97854.09
2023-02-27T10:07:16.829Z,97870.44
2023-02-27T10:10:09.460Z,97864.13
2023-02-27T10:13:03.047Z,97874.41
2023-02-27T10:15:52.664Z,97867.31
2023-02-27T10:18:52.410Z,97866.25
2023-02-27T10:21:47.710Z,97864.38
2023-02-27T10:24:41.366Z,97866.78
2023-02-27T10:27:29.860Z,97864.88
2023-02-27T10:30:29.277Z,97871.06
2023-02-27T10:33:34.395Z,97874.22
2023-02-27T10:36:33.038Z,97884.47
2023-02-27T10:39:21.233Z,97878.31
2023-02-27T10:42:09.849Z,97880.81
2023-02-27T10:44:56.720Z,97884.16
2023-02-27T10:47:44.101Z,97885.00
2023-02-27T10:50:33.352Z,97880.41
2023-02-27T10:53:21.813Z,97884.69
2023-02-27T10:56:15.617Z,97884.47
2023-02-27T10:59:07.498Z,97875.78
2023-02-27T11:01:58.481Z,97889.38
2023-02-27T11:04:56.470Z,97875.78
2023-02-27T11:07:43.457Z,97877.06
2023-02-27T11:10:30.248Z,97882.16
2023-02-27T11:13:21.992Z,97871.69
2023-02-27T11:16:15.367Z,97873.38
2023-02-27T11:19:23.689Z,97871.38
2023-02-27T11:22:20.095Z,97875.69
2023-02-27T11:25:23.142Z,97865.09
2023-02-27T11:28:24.601Z,97871.91
2023-02-27T11:31:17.819Z,97870.00
2023-02-27T11:34:05.145Z,97870.88
2023-02-27T11:36:55.966Z,97858.69
2023-02-27T11:39:51.413Z,97854.22
2023-02-27T11:42:44.827Z,97855.88
2023-02-27T11:46:24.935Z,97856.50
2023-02-27T11:48:40.872Z,97837.47
2023-02-27T11:51:51.530Z,97853.69
2023-02-27T11:54:42.993Z,97853.47
2023-02-27T11:57:35.628Z,97839.53
2023-02-27T12:00:26.368Z,97843.69
2023-02-27T12:03:21.367Z,97848.94
2023-02-27T12:06:18.049Z,97849.56
2023-02-27T12:09:13.053Z,97850.63
2023-02-27T12:12:01.970Z,97856.38
2023-02-27T12:14:55.712Z,97847.56
2023-02-27T12:17:54.957Z,97834.38
2023-02-27T12:20:57.821Z,97843.78
2023-02-27T12:23:51.752Z,97841.16
2023-02-27T12:26:42.557Z,97830.69
2023-02-27T12:29:36.385Z,97836.03
2023-02-27T12:32:32.071Z,97833.00
2023-02-27T12:35:25.286Z,97830.88
2023-02-27T12:38:14.931Z,97825.44
2023-02-27T12:41:27.521Z,97820.81
2023-02-27T12:44:52.058Z,97835.13
2023-02-27T12:48:02.311Z,97818.47
2023-02-27T12:51:19.530Z,97813.84
2023-02-27T12:54:25.608Z,97821.13
2023-02-27T12:57:31.236Z,97828.91
2023-02-27T13:00:22.998Z,97821.88
2023-02-27T13:03:34.622Z,97820.50
2023-02-27T13:06:53.871Z,97828.00
2023-02-27T13:09:40.535Z,97819.09
2023-02-27T13:12:41.290Z,97815.63
2023-02-27T13:15:31.504Z,97818.75
2023-02-27T13:18:32.385Z,97818.75
2023-02-27T13:21:23.376Z,97813.91
2023-02-27T13:24:28.410Z,97820.09
2023-02-27T13:27:38.105Z,97818.56
2023-02-27T13:30:28.369Z,97809.66
2023-02-27T13:33:22.630Z,97812.06
2023-02-27T13:36:14.000Z,97807.41
2023-02-27T13:39:00.793Z,97805.72
2023-02-27T13:41:47.591Z,97808.94
2023-02-27T13:44:40.322Z,97794.88
2023-02-27T13:47:40.453Z,97799.56
2023-02-27T13:50:27.299Z,97802.06
2023-02-27T13:53:17.949Z,97787.41
2023-02-27T13:56:22.922Z,97794.69
2023-02-27T13:59:21.463Z,97799.94
2023-02-27T14:02:11.453Z,97812.81
2023-02-27T14:05:01.074Z,97811.75
2023-02-27T14:07:58.682Z,97803.66
2023-02-27T14:11:14.452Z,97802.00
2023-02-27T14:14:06.053Z,97796.25
2023-02-27T14:16:53.258Z,97803.22
2023-02-27T14:19:40.094Z,97808.31
2023-02-27T14:22:36.000Z,97809.16
2023-02-27T14:25:37.894Z,97799.50
2023-02-27T14:28:34.496Z,97810.59
2023-02-27T14:31:26.653Z,97807.88
2023-02-27T14:34:29.109Z,97804.38
2023-02-27T14:37:21.091Z,97805.94
2023-02-27T14:40:45.030Z,97803.44
2023-02-27T14:43:48.894Z,97807.75
2023-02-27T14:46:39.791Z,97812.75
2023-02-27T14:49:29.933Z,97812.63
2023-02-27T14:52:22.481Z,97812.03
2023-02-27T14:55:14.820Z,97812.63
2023-02-27T14:58:10.045Z,97823.88
2023-02-27T15:01:12.548Z,97823.97
2023-02-27T15:04:06.356Z,97810.84
2023-02-27T15:06:54.772Z,97819.31
2023-02-27T15:09:50.567Z,97815.75
2023-02-27T15:12:39.127Z,97815.03
2023-02-27T15:15:25.942Z,97826.25
2023-02-27T15:18:14.044Z,97810.75
2023-02-27T15:21:03.144Z,97820.19
2023-02-27T15:24:06.261Z,97829.50
2023-02-27T15:27:30.118Z,97825.06
2023-02-27T15:30:24.626Z,97825.91
2023-02-27T15:33:18.418Z,97825.91
2023-02-27T15:36:05.605Z,97834.59
2023-02-27T15:39:11.139Z,97827.69
2023-02-27T15:42:03.540Z,97829.34
2023-02-27T15:44:50.584Z,97826.72
2023-02-27T15:47:38.086Z,97827.78
2023-02-27T15:50:32.178Z,97828.53
2023-02-27T15:53:21.547Z,97835.44
2023-02-27T15:56:09.593Z,97835.22
2023-02-27T15:59:00.244Z,97832.22
2023-02-27T16:01:49.637Z,97839.75
2023-02-27T16:04:39.373Z,97839.03
2023-02-27T16:07:27.023Z,97847.50
2023-02-27T16:10:19.754Z,97852.75
2023-02-27T16:13:35.672Z,97852.75
2023-02-27T16:16:26.443Z,97853.59
2023-02-27T16:19:24.218Z,97857.03
2023-02-27T16:22:19.498Z,97858.00
2023-02-27T16:25:11.996Z,97858.00
2023-02-27T16:27:58.934Z,97864.09
2023-02-27T16:30:45.832Z,97867.53
2023-02-27T16:33:36.508Z,97874.59
2023-02-27T16:36:26.361Z,97878.16
2023-02-27T16:39:13.492Z,97880.66
2023-02-27T16:42:01.924Z,97877.22
2023-02-27T16:44:53.594Z,97880.66
2023-02-27T16:47:40.422Z,97891.16
2023-02-27T16:50:56.893Z,97890.22
2023-02-27T16:53:46.259Z,97892.00
2023-02-27T16:56:38.420Z,97894.75
2023-02-27T16:59:28.705Z,97890.47
2023-02-27T17:02:15.595Z,97880.41
2023-02-27T17:05:20.387Z,97889.03
2023-02-27T17:08:07.460Z,97896.63
2023-02-27T17:10:54.299Z,97894.97
2023-02-27T17:13:41.378Z,97902.75
2023-02-27T17:16:28.970Z,97902.75
2023-02-27T17:19:16.056Z,97901.88
2023-02-27T17:22:03.167Z,97908.09
2023-02-27T17:24:49.967Z,97910.03
2023-02-27T17:27:38.958Z,97913.25
2023-02-27T17:30:25.800Z,97916.81
2023-02-27T17:33:17.466Z,97922.78
2023-02-27T17:36:06.919Z,97925.28
2023-02-27T17:38:55.878Z,97920.16
2023-02-27T17:41:46.428Z,97930.44
2023-02-27T17:44:33.163Z,97928.75
2023-02-27T17:47:20.272Z,97929.72
2023-02-27T17:50:10.118Z,97938.63
2023-02-27T17:52:59.560Z,97937.72
2023-02-27T17:55:47.782Z,97942.22
2023-02-27T17:58:35.057Z,97947.47
2023-02-27T18:01:25.647Z,97942.97
2023-02-27T18:04:16.882Z,97937.41
2023-02-27T18:07:06.775Z,97951.16
2023-02-27T18:09:53.676Z,97950.31
2023-02-27T18:12:40.626Z,97948.03
2023-02-27T18:15:27.655Z,97957.72
2023-02-27T18:18:17.918Z,97955.31
2023-02-27T18:21:11.686Z,97956.97
2023-02-27T18:24:01.460Z,97952.19
2023-02-27T18:26:50.677Z,97954.91
2023-02-27T18:29:37.582Z,97956.84
2023-02-27T18:32:25.002Z,97962.31
2023-02-27T18:35:14.129Z,97966.09
2023-02-27T18:38:02.336Z,97961.06
2023-02-27T18:40:49.449Z,97960.47
2023-02-27T18:43:37.060Z,97964.03
2023-02-27T18:46:27.011Z,97961.63
2023-02-27T18:49:18.519Z,97978.09
2023-02-27T18:52:05.417Z,97974.00
2023-02-27T18:54:55.072Z,97980.22
2023-02-27T18:57:41.878Z,97975.19
2023-02-27T19:00:30.946Z,97984.09
2023-02-27T19:04:05.773Z,97972.28
2023-02-27T19:11:16.471Z,97966.25
2023-02-27T19:14:06.113Z,97982.59
2023-02-27T19:16:53.488Z,97981.88
2023-02-27T19:19:40.393Z,97976.84
2023-02-27T19:26:24.353Z,97973.28
2023-02-27T19:29:13.967Z,97985.47
2023-02-27T19:32:02.169Z,97982.25
2023-02-27T19:34:52.381Z,97975.63
2023-02-27T19:41:10.881Z,97978.59
2023-02-27T19:43:58.006Z,97984.66
2023-02-27T19:46:51.377Z,97982.88
2023-02-27T19:49:38.656Z,97984.03
2023-02-27T19:52:25.534Z,97980.56
2023-02-27T19:55:22.260Z,97983.63
2023-02-27T19:58:09.253Z,97975.03
2023-02-27T20:01:28.818Z,97988.97
2023-02-27T20:04:42.405Z,97994.94
2023-02-27T20:07:40.190Z,97994.56
2023-02-27T20:10:39.705Z,97996.31
2023-02-27T20:14:17.326Z,97999.88
2023-02-27T20:20:32.110Z,97986.69
2023-02-27T20:26:38.290Z,97974.25
2023-02-27T20:29:26.948Z,97987.09
2023-02-27T20:32:43.859Z,97994.25
2023-02-27T20:35:30.899Z,97981.56
2023-02-27T20:38:19.931Z,97985.75
2023-02-27T20:41:12.293Z,97987.53
2023-02-27T20:44:01.614Z,97989.41
2023-02-27T20:46:49.572Z,97989.53
2023-02-27T20:49:39.106Z,97990.56
2023-02-27T20:52:27.443Z,97988.16
2023-02-27T20:55:15.702Z,97991.09
2023-02-27T20:58:04.927Z,98005.13
2023-02-27T21:00:52.276Z,97990.66
2023-02-27T21:03:40.530Z,97990.97
2023-02-27T21:06:27.736Z,97995.06
2023-02-27T21:09:14.613Z,97994.31
2023-02-27T21:12:04.967Z,97986.69
2023-02-27T21:14:51.816Z,97980.50
2023-02-27T21:17:49.198Z,97981.47
2023-02-27T21:20:53.310Z,97982.38
2023-02-27T21:27:41.976Z,97979.25
2023-02-27T21:30:36.477Z,97973.47
2023-02-27T21:33:29.349Z,97977.03
2023-02-27T21:36:29.457Z,97970.13
2023-02-27T21:39:18.447Z,97969.19
2023-02-27T21:42:10.321Z,97961.53
2023-02-27T21:45:00.452Z,97959.22
2023-02-27T21:47:50.395Z,97956.50
2023-02-27T21:50:50.999Z,97958.28
2023-02-27T21:53:40.776Z,97946.97
2023-02-27T21:56:29.675Z,97949.50
2023-02-27T21:59:23.181Z,97954.00
2023-02-27T22:02:13.765Z,97941.22
2023-02-27T22:05:05.002Z,97935.25
2023-02-27T22:07:51.975Z,97943.41
2023-02-27T22:10:51.063Z,97945.91
2023-02-27T22:13:38.151Z,97941.75
2023-02-27T22:16:25.126Z,97940.91
2023-02-27T22:19:22.142Z,97937.53
2023-02-27T22:22:18.123Z,97934.41
2023-02-27T22:25:15.202Z,97942.97
2023-02-27T22:28:05.248Z,97939.63
2023-02-27T22:30:56.175Z,97935.44
2023-02-27T22:33:44.226Z,97945.78
2023-02-27T22:36:34.969Z,97952.09
2023-02-27T22:39:21.825Z,97950.38
2023-02-27T22:42:11.956Z,97942.75
2023-02-27T22:44:58.745Z,97938.66
2023-02-27T22:47:45.696Z,97932.78
2023-02-27T22:50:34.737Z,97945.78
2023-02-27T22:53:29.573Z,97945.03
2023-02-27T22:56:16.835Z,97937.38
2023-02-27T22:59:07.920Z,97931.75
2023-02-27T23:01:55.072Z,97951.41
2023-02-27T23:04:41.899Z,97947.22
2023-02-27T23:07:28.744Z,97942.19
2023-02-27T23:10:24.369Z,97943.94
2023-02-27T23:13:11.236Z,97948.34
2023-02-27T23:16:11.709Z,97938.09
2023-02-27T23:19:06.442Z,97945.94
2023-02-27T23:21:53.243Z,97936.53
2023-02-27T23:24:40.637Z,97937.44
2023-02-27T23:27:27.507Z,97941.84
2023-02-27T23:30:16.488Z,97932.44
2023-02-27T23:33:03.284Z,97934.31
2023-02-27T23:35:50.634Z,97933.34
2023-02-27T23:38:40.034Z,97932.72
2023-02-27T23:41:27.844Z,97938.91
2023-02-27T23:44:14.815Z,97938.16
2023-02-27T23:47:01.612Z,97933.13
2023-02-27T23:49:48.380Z,97922.03
2023-02-27T23:52:35.205Z,97926.53
2023-02-27T23:55:22.260Z,97923.91
2023-02-27T23:58:10.198Z,97932.69
